Time;durP1;ratioP1;P1;durP2;ratioP2;P2;SDS_P1;SDS_P2;PMS_P1;PMS_P2;Temp;Humidity;BMP_temperature;BMP_pressure;BME280_temperature;BME280_humidity;BME280_pressure;Samples;Min_cycle;Max_cycle;Signal;HPM_P1;HPM_P2
2022/06/15 00:00:46;;;;;;;6.15;3.15;;;16.20;76.90;;;;;;5033546;28;20040;-83
2022/06/15 00:03:13;;;;;;;5.25;3.20;;;16.10;77.00;;;;;;5006619;28;20048;-83
2022/06/15 00:05:42;;;;;;;5.60;3.10;;;16.00;77.50;;;;;;5006939;28;20037;-83
2022/06/15 00:08:09;;;;;;;5.25;2.95;;;16.00;78.20;;;;;;5023825;28;20022;-83
2022/06/15 00:10:35;;;;;;;4.10;2.90;;;16.00;78.20;;;;;;5023325;28;20021;-81
2022/06/15 00:13:01;;;;;;;4.82;3.08;;;16.00;78.30;;;;;;5023998;28;20037;-83
2022/06/15 00:15:27;;;;;;;4.93;2.90;;;15.90;78.50;;;;;;5023376;28;20100;-83
2022/06/15 00:17:53;;;;;;;4.10;2.97;;;15.80;78.70;;;;;;5023753;28;20022;-82
2022/06/15 00:20:18;;;;;;;4.53;2.78;;;15.80;79.20;;;;;;5014888;28;20041;-82
2022/06/15 00:22:44;;;;;;;3.45;2.85;;;15.80;79.50;;;;;;5024068;28;20029;-83
2022/06/15 00:25:10;;;;;;;4.07;2.92;;;15.80;79.60;;;;;;5043299;28;20056;-83
2022/06/15 00:27:36;;;;;;;3.25;2.70;;;15.70;79.70;;;;;;5042734;28;20032;-82
2022/06/15 00:30:04;;;;;;;3.50;2.92;;;15.70;80.00;;;;;;5042049;28;20065;-83
2022/06/15 00:32:30;;;;;;;3.38;2.95;;;15.70;80.40;;;;;;5025011;28;20021;-82
2022/06/15 00:34:56;;;;;;;4.13;2.80;;;15.70;80.50;;;;;;5044620;28;20032;-83
2022/06/15 00:37:22;;;;;;;4.80;2.75;;;15.60;80.70;;;;;;5046451;28;20022;-83
2022/06/15 00:39:48;;;;;;;4.18;2.78;;;15.60;80.90;;;;;;5026960;28;20563;-83
2022/06/15 00:42:16;;;;;;;4.30;3.13;;;15.60;81.40;;;;;;5029108;28;20030;-82
2022/06/15 00:44:42;;;;;;;5.55;3.20;;;15.60;81.50;;;;;;5022301;28;20060;-83
2022/06/15 00:47:18;;;;;;;6.35;3.10;;;15.60;81.70;;;;;;5021857;28;20383;-83
2022/06/15 00:49:56;;;;;;;4.75;2.88;;;15.60;82.10;;;;;;5033702;28;20021;-82
2022/06/15 00:52:57;;;;;;;3.30;2.95;;;15.60;82.10;;;;;;5046642;28;20021;-82
2022/06/15 00:55:27;;;;;;;5.70;3.25;;;15.50;82.40;;;;;;5017717;28;20116;-82
2022/06/15 00:57:54;;;;;;;4.13;2.55;;;15.50;82.60;;;;;;5013634;28;20034;-82
2022/06/15 01:00:20;;;;;;;3.95;2.60;;;15.50;82.80;;;;;;5028023;28;20033;-82
2022/06/15 01:02:46;;;;;;;4.13;2.90;;;15.50;83.00;;;;;;5024152;28;20126;-83
2022/06/15 01:05:15;;;;;;;2.85;2.60;;;15.50;83.20;;;;;;5022327;28;20115;-82
2022/06/15 01:08:10;;;;;;;4.72;3.05;;;15.40;83.00;;;;;;5025548;28;20036;-82
2022/06/15 01:10:36;;;;;;;4.25;3.03;;;15.40;83.30;;;;;;5012683;28;20037;-83
2022/06/15 01:13:06;;;;;;;3.95;2.92;;;15.40;83.40;;;;;;5029167;28;20030;-82
2022/06/15 01:15:46;;;;;;;3.40;3.00;;;15.40;83.60;;;;;;5025142;28;20041;-82
2022/06/15 01:18:23;;;;;;;5.75;3.80;;;15.30;84.00;;;;;;5031915;28;20025;-82
2022/06/15 01:21:10;;;;;;;4.30;3.42;;;15.30;84.30;;;;;;5035108;28;20053;-83
2022/06/15 01:24:04;;;;;;;3.10;2.70;;;15.30;84.50;;;;;;5019479;28;20014;-82
2022/06/15 01:26:48;;;;;;;4.57;3.47;;;15.20;84.60;;;;;;5033008;28;20034;-83
2022/06/15 01:29:47;;;;;;;3.03;2.72;;;15.20;85.00;;;;;;5029710;28;20030;-82
2022/06/15 01:32:39;;;;;;;3.75;3.10;;;15.20;85.20;;;;;;5023833;28;20025;-82
2022/06/15 01:35:31;;;;;;;5.03;3.38;;;15.20;85.40;;;;;;5024227;28;20018;-82
2022/06/15 01:38:19;;;;;;;5.32;3.20;;;15.20;85.50;;;;;;5023946;28;20022;-82
2022/06/15 01:40:51;;;;;;;6.40;3.90;;;15.20;85.70;;;;;;5024380;28;20032;-83
2022/06/15 01:43:19;;;;;;;;;;;15.10;86.00;;;;;;5006265;28;20034;-83
2022/06/15 01:45:46;;;;;;;4.30;3.25;;;15.10;86.40;;;;;;5023472;28;20314;-81
2022/06/15 01:48:14;;;;;;;4.20;3.30;;;15.10;86.30;;;;;;5023375;28;20018;-82
2022/06/15 01:50:48;;;;;;;4.35;3.40;;;15.00;86.70;;;;;;5041161;28;20041;-83
2022/06/15 01:53:30;;;;;;;4.95;3.20;;;15.00;87.10;;;;;;5026882;28;20018;-84
2022/06/15 01:56:21;;;;;;;3.42;2.67;;;14.90;87.40;;;;;;5023278;28;20022;-83
2022/06/15 01:58:53;;;;;;;4.60;3.28;;;14.90;88.20;;;;;;5022985;28;20099;-82
2022/06/15 02:01:53;;;;;;;3.65;3.17;;;14.90;88.40;;;;;;5023692;28;20041;-83
2022/06/15 02:04:33;;;;;;;3.85;3.00;;;14.90;88.50;;;;;;5018752;28;20042;-83
2022/06/15 02:07:29;;;;;;;4.45;3.00;;;14.90;88.70;;;;;;5025954;28;20032;-83
2022/06/15 02:10:33;;;;;;;4.50;3.13;;;14.80;89.20;;;;;;5024102;28;20367;-83
2022/06/15 02:13:09;;;;;;;4.25;3.30;;;14.80;89.80;;;;;;5026583;28;20494;-83
2022/06/15 02:15:37;;;;;;;3.88;3.00;;;14.70;90.10;;;;;;5026960;28;20026;-83
2022/06/15 02:18:07;;;;;;;3.05;2.72;;;14.70;90.30;;;;;;5025689;28;20029;-83
2022/06/15 02:20:37;;;;;;;3.25;2.95;;;14.70;90.50;;;;;;5011069;28;20072;-83
2022/06/15 02:23:06;;;;;;;3.78;3.13;;;14.70;90.70;;;;;;5027443;28;20038;-83
2022/06/15 02:25:35;;;;;;;6.68;3.05;;;14.70;90.80;;;;;;5045624;28;20098;-82
2022/06/15 02:28:02;;;;;;;5.25;3.53;;;14.70;90.80;;;;;;5044349;28;20466;-83
2022/06/15 02:30:30;;;;;;;3.75;3.17;;;14.70;91.00;;;;;;5023501;28;20026;-83
2022/06/15 02:32:55;;;;;;;3.50;3.05;;;14.70;91.00;;;;;;5026678;28;20125;-82
2022/06/15 02:35:22;;;;;;;4.43;3.15;;;14.60;91.00;;;;;;5008324;28;20018;-83
2022/06/15 02:37:49;;;;;;;4.10;3.40;;;14.60;91.20;;;;;;5026121;28;20026;-83
2022/06/15 02:40:22;;;;;;;3.55;3.25;;;14.60;91.40;;;;;;5025147;28;20077;-82
2022/06/15 02:42:49;;;;;;;5.95;3.33;;;14.60;91.50;;;;;;5006784;28;20121;-82
2022/06/15 02:45:28;;;;;;;3.40;3.10;;;14.60;91.50;;;;;;5006626;28;20022;-83
2022/06/15 02:47:55;;;;;;;3.53;3.22;;;14.60;91.60;;;;;;5007662;28;20053;-82
2022/06/15 02:50:23;;;;;;;5.05;3.38;;;14.60;91.60;;;;;;5042557;28;20032;-82
2022/06/15 02:53:13;;;;;;;5.43;3.50;;;14.50;91.60;;;;;;5027038;28;20030;-82
2022/06/15 02:55:39;;;;;;;6.07;3.25;;;14.50;91.80;;;;;;5026305;28;20110;-83
2022/06/15 02:58:16;;;;;;;5.47;3.47;;;14.40;92.00;;;;;;5006902;28;20053;-82
2022/06/15 03:00:42;;;;;;;4.00;3.30;;;14.40;92.20;;;;;;5008065;28;20030;-82
2022/06/15 03:03:08;;;;;;;3.95;3.53;;;14.40;92.30;;;;;;5024879;28;20026;-82
2022/06/15 03:05:34;;;;;;;4.15;3.20;;;14.40;92.30;;;;;;5024348;28;20022;-82
2022/06/15 03:07:59;;;;;;;3.53;3.22;;;14.40;92.50;;;;;;5026459;28;20367;-82
2022/06/15 03:10:25;;;;;;;5.45;3.58;;;14.40;92.50;;;;;;5023525;28;20026;-82
2022/06/15 03:12:51;;;;;;;4.43;3.33;;;14.30;92.60;;;;;;5022440;28;20026;-83
2022/06/15 03:15:17;;;;;;;3.28;2.83;;;14.30;92.70;;;;;;5027556;28;20038;-80
2022/06/15 03:17:43;;;;;;;3.97;3.47;;;14.30;92.80;;;;;;5025095;28;20028;-82
2022/06/15 03:20:12;;;;;;;5.00;3.30;;;14.30;92.90;;;;;;5024655;28;20091;-83
2022/06/15 03:22:39;;;;;;;4.57;2.72;;;14.20;92.90;;;;;;5026333;28;20059;-84
2022/06/15 03:25:05;;;;;;;4.47;3.22;;;14.20;93.10;;;;;;5002608;28;20026;-83
2022/06/15 03:27:33;;;;;;;3.67;3.22;;;14.20;93.10;;;;;;5001764;28;20051;-83
2022/06/15 03:30:04;;;;;;;4.00;3.15;;;14.20;93.20;;;;;;5018749;28;20034;-85
2022/06/15 03:32:30;;;;;;;4.45;3.22;;;14.10;93.20;;;;;;5021029;28;20018;-84
2022/06/15 03:34:55;;;;;;;5.72;3.25;;;14.10;93.40;;;;;;5020088;28;20026;-84
2022/06/15 03:37:21;;;;;;;3.95;3.60;;;14.10;93.60;;;;;;5020586;28;20022;-84
2022/06/15 03:39:47;;;;;;;4.47;3.50;;;14.00;93.80;;;;;;5003775;28;20026;-84
2022/06/15 03:42:22;;;;;;;4.38;3.35;;;14.10;93.90;;;;;;5008948;28;20127;-84
2022/06/15 03:44:48;;;;;;;6.68;3.97;;;14.10;94.00;;;;;;5029691;28;20026;-83
2022/06/15 03:47:17;;;;;;;3.40;3.05;;;14.10;94.00;;;;;;5028996;28;20026;-83
2022/06/15 03:49:45;;;;;;;4.88;3.35;;;14.10;94.00;;;;;;5019947;28;20085;-83
2022/06/15 03:52:11;;;;;;;4.40;3.50;;;14.10;94.20;;;;;;5049588;28;20020;-81
2022/06/15 03:54:37;;;;;;;3.63;3.33;;;14.10;94.20;;;;;;5040289;28;20029;-83
2022/06/15 03:57:03;;;;;;;6.93;3.78;;;14.10;94.20;;;;;;5018412;28;20022;-83
2022/06/15 03:59:30;;;;;;;5.00;3.55;;;14.20;94.10;;;;;;5010567;28;20042;-82
2022/06/15 04:01:56;;;;;;;4.82;3.58;;;14.10;94.10;;;;;;5025863;28;20022;-81
2022/06/15 04:04:23;;;;;;;6.07;3.50;;;14.20;94.10;;;;;;5018825;28;20029;-84
2022/06/15 04:06:49;;;;;;;5.93;3.33;;;14.20;94.00;;;;;;5029893;28;20060;-83
2022/06/15 04:09:23;;;;;;;5.03;3.67;;;14.20;93.90;;;;;;5037676;28;20029;-83
2022/06/15 04:11:59;;;;;;;5.45;3.53;;;14.20;94.00;;;;;;5029051;28;20056;-84
2022/06/15 04:14:26;;;;;;;3.67;3.38;;;14.20;94.10;;;;;;5024959;28;20390;-83
2022/06/15 04:16:56;;;;;;;5.75;3.38;;;14.20;94.10;;;;;;5025751;28;20205;-84
2022/06/15 04:19:24;;;;;;;4.30;3.35;;;14.30;94.10;;;;;;5034117;28;20056;-83
2022/06/15 04:21:50;;;;;;;4.28;3.25;;;14.30;94.10;;;;;;5044911;28;20033;-83
2022/06/15 04:24:17;;;;;;;4.30;3.35;;;14.30;94.00;;;;;;5046432;28;20048;-83
2022/06/15 04:26:44;;;;;;;3.47;3.15;;;14.40;94.00;;;;;;5004755;28;20021;-82
2022/06/15 04:29:10;;;;;;;3.97;3.40;;;14.40;93.80;;;;;;5023905;28;20030;-83
2022/06/15 04:31:38;;;;;;;4.30;3.00;;;14.50;93.80;;;;;;5007667;28;20112;-83
2022/06/15 04:34:04;;;;;;;4.28;3.28;;;14.50;93.70;;;;;;5005616;28;20041;-83
2022/06/15 04:36:30;;;;;;;3.25;2.95;;;14.60;93.80;;;;;;5005828;28;20021;-83
2022/06/15 04:38:57;;;;;;;3.70;3.20;;;14.70;93.60;;;;;;5006493;28;20062;-83
2022/06/15 04:41:22;;;;;;;3.28;2.75;;;14.80;93.40;;;;;;5024158;28;20026;-83
2022/06/15 04:43:48;;;;;;;4.28;2.70;;;14.90;93.10;;;;;;5023471;28;20046;-83
2022/06/15 04:46:14;;;;;;;3.88;2.72;;;15.00;93.00;;;;;;5023936;28;20384;-83
2022/06/15 04:48:41;;;;;;;7.60;3.65;;;15.10;92.80;;;;;;5027155;28;20076;-82
2022/06/15 04:51:21;;;;;;;7.30;3.88;;;15.20;92.30;;;;;;5026651;28;20013;-83
2022/06/15 04:53:54;;;;;;;7.88;3.63;;;15.10;92.20;;;;;;5027366;28;20203;-84
2022/06/15 04:56:21;;;;;;;5.88;3.40;;;15.20;92.10;;;;;;5043815;28;20077;-83
2022/06/15 04:58:47;;;;;;;6.97;3.65;;;15.30;92.00;;;;;;5043448;28;20029;-83
2022/06/15 05:01:14;;;;;;;3.97;3.65;;;15.50;91.70;;;;;;5026816;28;20052;-82
2022/06/15 05:03:40;;;;;;;3.90;3.22;;;15.70;91.50;;;;;;5025572;28;20024;-84
2022/06/15 05:06:28;;;;;;;6.35;4.15;;;15.90;91.00;;;;;;5045445;28;20045;-82
2022/06/15 05:08:54;;;;;;;6.63;4.25;;;16.70;90.50;;;;;;5045322;28;20525;-83
2022/06/15 05:11:19;;;;;;;5.38;3.75;;;18.70;81.70;;;;;;5032648;28;20021;-83
2022/06/15 05:13:45;;;;;;;2.90;2.67;;;19.40;78.40;;;;;;5050935;28;20032;-85
2022/06/15 05:16:11;;;;;;;5.05;3.10;;;21.30;74.90;;;;;;5007934;28;20033;-85
2022/06/15 05:18:37;;;;;;;4.03;2.35;;;23.40;66.40;;;;;;5044851;22;20041;-78
2022/06/15 05:21:03;;;;;;;2.13;2.03;;;25.10;60.50;;;;;;5072174;28;20024;-77
2022/06/15 05:23:29;;;;;;;2.95;2.53;;;26.90;56.00;;;;;;5077043;28;20020;-77
2022/06/15 05:25:57;;;;;;;3.38;2.40;;;28.40;52.20;;;;;;5039412;28;20493;-81
2022/06/15 05:28:23;;;;;;;3.72;2.33;;;29.60;48.20;;;;;;5056035;28;20545;-79
2022/06/15 05:30:48;;;;;;;2.05;1.85;;;30.20;46.90;;;;;;5055501;28;20045;-79
2022/06/15 05:33:14;;;;;;;2.13;1.92;;;31.30;45.70;;;;;;5055645;28;20385;-80
2022/06/15 05:35:40;;;;;;;1.80;1.60;;;32.50;43.60;;;;;;5055585;28;20025;-79
2022/06/15 05:38:06;;;;;;;1.90;1.77;;;33.20;42.10;;;;;;5062146;28;20083;-85
2022/06/15 05:40:31;;;;;;;1.80;1.70;;;33.40;41.30;;;;;;5076197;28;20036;-82
2022/06/15 05:42:57;;;;;;;2.30;2.10;;;33.70;40.90;;;;;;5037797;28;20473;-80
2022/06/15 05:45:23;;;;;;;2.00;1.90;;;34.30;40.30;;;;;;5056657;28;20448;-79
2022/06/15 05:47:49;;;;;;;2.22;2.00;;;34.80;39.60;;;;;;5056692;28;20064;-79
2022/06/15 05:50:15;;;;;;;2.42;2.22;;;35.10;38.90;;;;;;5071919;28;20086;-80
2022/06/15 05:52:41;;;;;;;2.55;2.35;;;35.10;38.40;;;;;;5056604;28;20024;-80
2022/06/15 05:55:07;;;;;;;3.28;2.33;;;33.60;37.90;;;;;;5065394;28;20021;-79
2022/06/15 05:57:33;;;;;;;2.17;1.70;;;30.70;40.80;;;;;;5054545;28;20029;-80
2022/06/15 05:59:59;;;;;;;1.83;1.70;;;29.70;44.60;;;;;;5035936;28;20079;-80
2022/06/15 06:02:27;;;;;;;2.38;2.08;;;30.90;43.90;;;;;;5056409;28;20436;-78
2022/06/15 06:04:53;;;;;;;1.52;1.42;;;32.50;42.40;;;;;;5054227;28;20118;-80
2022/06/15 06:07:20;;;;;;;2.55;2.25;;;33.60;40.80;;;;;;5054431;28;20017;-80
2022/06/15 06:09:46;;;;;;;2.83;2.08;;;33.50;39.60;;;;;;5036927;28;20025;-79
2022/06/15 06:12:14;;;;;;;2.10;1.90;;;33.50;40.40;;;;;;5037704;28;20053;-80
2022/06/15 06:14:40;;;;;;;3.45;2.00;;;34.30;39.60;;;;;;5056218;28;20033;-78
2022/06/15 06:17:07;;;;;;;2.53;2.15;;;34.30;39.40;;;;;;5055720;28;20017;-79
2022/06/15 06:19:33;;;;;;;2.95;2.13;;;34.50;38.80;;;;;;5063159;28;20036;-79
2022/06/15 06:21:59;;;;;;;2.42;2.15;;;34.50;39.20;;;;;;5069498;28;20104;-80
2022/06/15 06:24:25;;;;;;;2.20;2.10;;;35.10;38.40;;;;;;5057024;28;20044;-79
2022/06/15 06:26:57;;;;;;;2.38;1.77;;;35.80;38.00;;;;;;5057296;28;20103;-79
2022/06/15 06:29:23;;;;;;;2.05;1.85;;;36.20;37.60;;;;;;5076391;28;20343;-80
2022/06/15 06:31:49;;;;;;;2.35;2.10;;;36.70;37.10;;;;;;5074997;28;20481;-79
2022/06/15 06:34:14;;;;;;;2.17;2.03;;;36.90;36.40;;;;;;5070103;28;20025;-80
2022/06/15 06:36:43;;;;;;;2.30;2.10;;;36.80;37.20;;;;;;5054853;28;20020;-80
2022/06/15 06:39:19;;;;;;;3.70;2.53;;;36.80;36.70;;;;;;5043351;28;20109;-79
2022/06/15 06:41:45;;;;;;;3.03;2.50;;;36.60;36.60;;;;;;5035293;28;20490;-80
2022/06/15 06:44:11;;;;;;;2.45;2.00;;;36.30;37.10;;;;;;5053232;28;20112;-79
2022/06/15 06:46:41;;;;;;;2.10;2.00;;;36.60;37.10;;;;;;5055195;28;20032;-80
2022/06/15 06:49:07;;;;;;;3.17;2.35;;;36.60;36.70;;;;;;5055010;28;20021;-80
2022/06/15 06:51:35;;;;;;;3.08;2.30;;;35.40;38.10;;;;;;5066544;28;20380;-79
2022/06/15 06:54:01;;;;;;;2.15;1.95;;;35.00;37.90;;;;;;5077021;28;20021;-80
2022/06/15 06:56:26;;;;;;;8.05;3.58;;;35.20;38.40;;;;;;5041840;28;20043;-79
2022/06/15 06:58:52;;;;;;;4.78;2.40;;;35.50;38.10;;;;;;5057771;28;20028;-80
2022/06/15 07:01:18;;;;;;;4.55;2.17;;;35.20;38.60;;;;;;5058994;28;20166;-80
2022/06/15 07:03:43;;;;;;;2.20;2.00;;;35.60;38.00;;;;;;5057136;28;20350;-79
2022/06/15 07:06:09;;;;;;;3.13;2.55;;;36.10;37.70;;;;;;5041425;28;20360;-79
2022/06/15 07:08:39;;;;;;;3.08;2.40;;;36.10;36.90;;;;;;5061084;28;20088;-80
2022/06/15 07:11:15;;;;;;;2.80;2.25;;;35.00;37.70;;;;;;5041391;28;20047;-79
2022/06/15 07:13:42;;;;;;;2.45;2.20;;;33.80;39.30;;;;;;5040723;28;20021;-78
2022/06/15 07:16:10;;;;;;;2.60;2.40;;;34.00;39.60;;;;;;5040973;28;20102;-79
2022/06/15 07:18:36;;;;;;;3.80;2.30;;;34.40;38.90;;;;;;5058932;28;20381;-79
2022/06/15 07:21:04;;;;;;;4.20;2.67;;;33.90;38.60;;;;;;5069436;28;20357;-80
2022/06/15 07:23:30;;;;;;;3.30;2.65;;;31.30;40.30;;;;;;5079617;28;20028;-81
2022/06/15 07:25:56;;;;;;;2.60;2.20;;;28.30;44.50;;;;;;5074869;28;20021;-79
2022/06/15 07:28:22;;;;;;;3.25;2.03;;;26.10;48.80;;;;;;5057382;28;20013;-79
2022/06/15 07:30:48;;;;;;;3.05;2.50;;;24.60;52.10;;;;;;5057290;28;20523;-79
2022/06/15 07:33:15;;;;;;;3.13;2.20;;;23.50;54.90;;;;;;5057341;28;20024;-79
2022/06/15 07:35:41;;;;;;;6.55;2.63;;;22.80;56.60;;;;;;5062569;28;20025;-78
2022/06/15 07:38:07;;;;;;;3.00;2.60;;;22.40;58.10;;;;;;5068469;28;20017;-78
2022/06/15 07:40:33;;;;;;;3.70;2.40;;;22.00;59.10;;;;;;5069210;28;20092;-78
2022/06/15 07:42:59;;;;;;;2.38;2.10;;;21.70;60.10;;;;;;5042205;28;20036;-79
2022/06/15 07:45:25;;;;;;;3.17;1.95;;;21.60;60.80;;;;;;5056144;28;20418;-80
2022/06/15 07:50:41;;;;;;;4.53;2.42;;;21.60;61.60;;;;;;5064447;28;20031;-79
2022/06/15 07:53:11;;;;;;;5.40;2.40;;;21.60;62.20;;;;;;5056265;28;20043;-79
2022/06/15 07:55:40;;;;;;;3.75;2.40;;;21.60;62.50;;;;;;5057313;28;20025;-80
2022/06/15 07:58:07;;;;;;;3.90;2.33;;;21.60;62.50;;;;;;5056425;28;20456;-79
2022/06/15 08:00:35;;;;;;;2.67;2.47;;;21.60;62.50;;;;;;5039073;28;20033;-80
2022/06/15 08:03:01;;;;;;;6.35;2.92;;;21.70;62.70;;;;;;5056276;28;20099;-79
2022/06/15 08:05:30;;;;;;;4.43;2.80;;;21.70;62.50;;;;;;5056589;28;20091;-80
2022/06/15 08:07:56;;;;;;;4.97;2.85;;;21.70;62.90;;;;;;5056931;28;20028;-80
2022/06/15 08:10:25;;;;;;;4.55;2.80;;;21.70;63.50;;;;;;5039994;28;20105;-79
2022/06/15 08:12:52;;;;;;;5.07;2.90;;;21.80;63.30;;;;;;5062956;28;20025;-78
2022/06/15 08:15:19;;;;;;;8.07;2.97;;;21.80;63.60;;;;;;5045816;28;20028;-81
2022/06/15 08:17:49;;;;;;;4.38;2.45;;;21.80;63.90;;;;;;5044704;28;20021;-82
2022/06/15 08:20:47;;;;;;;4.38;2.20;;;21.90;63.80;;;;;;5068404;28;20104;-77
2022/06/15 08:23:17;;;;;;;4.55;2.53;;;22.00;63.80;;;;;;5044632;28;20059;-78
2022/06/15 08:25:47;;;;;;;3.90;2.80;;;22.10;63.70;;;;;;5044308;28;20102;-79
2022/06/15 08:28:18;;;;;;;4.07;3.03;;;22.20;63.60;;;;;;5061333;28;20025;-78
2022/06/15 08:30:43;;;;;;;3.40;2.67;;;22.30;62.90;;;;;;5058316;28;20094;-79
2022/06/15 08:33:09;;;;;;;8.95;2.97;;;22.50;62.10;;;;;;5058788;28;20100;-78
2022/06/15 08:35:36;;;;;;;3.95;2.33;;;22.60;62.00;;;;;;5054423;28;20029;-77
2022/06/15 08:38:04;;;;;;;2.97;2.33;;;22.60;61.90;;;;;;5054159;28;20021;-77
2022/06/15 08:40:36;;;;;;;10.35;3.40;;;22.80;61.90;;;;;;5054694;28;20024;-77
2022/06/15 08:43:08;;;;;;;;;;;23.00;61.40;;;;;;5037374;28;20033;-77
2022/06/15 08:46:19;;;;;;;4.93;2.53;;;23.10;60.60;;;;;;5055601;28;20379;-78
2022/06/15 08:49:34;;;;;;;2.97;2.67;;;23.10;60.70;;;;;;5034920;28;20552;-78
2022/06/15 08:52:10;;;;;;;4.15;2.30;;;23.20;60.50;;;;;;4973010;28;20035;-77
2022/06/15 08:54:43;;;;;;;3.10;2.22;;;23.40;60.30;;;;;;5026867;28;20030;-78
2022/06/15 08:57:19;;;;;;;2.72;2.53;;;23.60;59.60;;;;;;5042937;28;20068;-77
2022/06/15 08:59:48;;;;;;;5.53;3.08;;;23.80;59.50;;;;;;5054663;28;20021;-79
2022/06/15 09:02:35;;;;;;;5.32;3.00;;;23.90;58.70;;;;;;5055413;28;20489;-78
2022/06/15 09:05:24;;;;;;;4.93;2.60;;;23.90;59.00;;;;;;5037082;28;20021;-80
2022/06/15 09:07:55;;;;;;;4.68;2.78;;;24.10;58.60;;;;;;5054789;28;20120;-79
2022/06/15 09:10:42;;;;;;;4.70;2.83;;;24.20;58.00;;;;;;5056549;28;20071;-79
2022/06/15 09:13:38;;;;;;;4.82;2.58;;;24.30;57.90;;;;;;5057125;28;20031;-79
2022/06/15 09:16:27;;;;;;;3.28;2.50;;;24.50;57.80;;;;;;5057279;28;20025;-78
2022/06/15 09:19:06;;;;;;;12.23;3.95;;;24.60;57.70;;;;;;5043389;28;20032;-78
2022/06/15 09:21:38;;;;;;;16.52;3.78;;;24.80;57.10;;;;;;5069300;28;20027;-79
2022/06/15 09:24:16;;;;;;;7.60;3.05;;;24.90;56.70;;;;;;5055669;28;20086;-81
2022/06/15 09:26:49;;;;;;;8.57;3.58;;;25.10;56.40;;;;;;5056966;28;20485;-81
2022/06/15 09:29:34;;;;;;;3.92;2.60;;;25.20;56.00;;;;;;5055862;28;20021;-79
2022/06/15 09:32:14;;;;;;;3.67;2.50;;;25.30;55.90;;;;;;5056316;28;20092;-79
2022/06/15 09:35:02;;;;;;;4.05;2.78;;;25.60;55.60;;;;;;5057308;28;20028;-79
2022/06/15 09:37:33;;;;;;;3.33;2.50;;;25.60;55.20;;;;;;5068648;28;20037;-81
2022/06/15 09:40:00;;;;;;;2.55;2.33;;;25.80;54.40;;;;;;5046344;28;20071;-78
2022/06/15 09:42:38;;;;;;;3.58;2.92;;;25.90;54.20;;;;;;5055633;28;20198;-80
2022/06/15 09:45:18;;;;;;;5.80;3.00;;;26.00;53.80;;;;;;5057055;28;20025;-78
2022/06/15 09:47:59;;;;;;;4.45;3.17;;;26.00;53.50;;;;;;5069967;28;20032;-78
2022/06/15 09:50:43;;;;;;;24.92;2.88;;;25.80;53.40;;;;;;5081442;28;20021;-77
2022/06/15 09:53:28;;;;;;;4.85;2.47;;;25.70;53.70;;;;;;5083437;28;20091;-78
2022/06/15 09:56:06;;;;;;;3.83;2.42;;;25.90;52.60;;;;;;5088089;28;20024;-80
2022/06/15 09:58:58;;;;;;;4.80;2.35;;;25.90;52.80;;;;;;5075962;28;20040;-83
2022/06/15 10:01:28;;;;;;;2.50;2.00;;;26.00;53.00;;;;;;5062272;28;20101;-78
2022/06/15 10:03:57;;;;;;;2.38;2.15;;;26.30;52.70;;;;;;5073794;28;20028;-81
2022/06/15 10:06:35;;;;;;;1.92;1.83;;;26.50;51.90;;;;;;5069688;28;20021;-80
2022/06/15 10:09:04;;;;;;;2.17;1.98;;;26.70;51.70;;;;;;5048344;28;20085;-82
2022/06/15 10:11:36;;;;;;;2.78;2.35;;;26.90;51.30;;;;;;5053697;28;20474;-78
2022/06/15 10:14:36;;;;;;;2.67;2.30;;;27.00;50.70;;;;;;5049901;28;20032;-80
2022/06/15 10:17:17;;;;;;;1.75;1.65;;;27.10;50.30;;;;;;5018087;28;20044;-79
2022/06/15 10:19:47;;;;;;;2.60;2.10;;;27.10;50.20;;;;;;5087764;28;20033;-82
2022/06/15 10:22:26;;;;;;;3.40;2.10;;;27.20;50.30;;;;;;5087158;28;20021;-80
2022/06/15 10:24:53;;;;;;;2.42;2.17;;;27.30;50.30;;;;;;5090786;28;20054;-79
2022/06/15 10:27:25;;;;;;;2.05;1.83;;;27.40;50.30;;;;;;5068725;28;20393;-79
2022/06/15 10:30:12;;;;;;;3.22;2.30;;;27.40;49.80;;;;;;5058810;28;20036;-80
2022/06/15 10:33:19;;;;;;;5.38;2.35;;;27.40;49.90;;;;;;5057583;28;20017;-84
2022/06/15 10:35:58;;;;;;;2.42;2.13;;;27.70;49.80;;;;;;5062113;28;20020;-79
2022/06/15 10:38:26;;;;;;;3.38;2.08;;;27.80;49.60;;;;;;5020432;28;20041;-79
2022/06/15 10:41:45;;;;;;;2.67;1.95;;;27.90;49.20;;;;;;5037626;28;20057;-80
2022/06/15 10:43:48;;;;;;;4.47;2.78;;;28.00;48.60;;;;;;5037661;28;20032;-79
2022/06/15 10:46:16;;;;;;;4.32;2.20;;;28.00;48.70;;;;;;5057638;28;20021;-79
2022/06/15 10:48:46;;;;;;;3.38;2.63;;;27.90;48.70;;;;;;5069060;28;20031;-81
2022/06/15 10:51:30;;;;;;;4.65;2.88;;;27.90;48.80;;;;;;5059864;28;20032;-77
2022/06/15 10:54:20;;;;;;;3.58;2.00;;;27.90;48.70;;;;;;5062138;28;20376;-80
2022/06/15 11:02:21;;;;;;;3.05;2.42;;;28.10;48.40;;;;;;5057517;28;20063;-80
2022/06/15 11:04:46;;;;;;;8.18;3.20;;;28.30;47.90;;;;;;5056687;28;20029;-79
2022/06/15 11:07:25;;;;;;;3.33;2.50;;;28.50;46.90;;;;;;5059257;28;20028;-79
2022/06/15 11:09:53;;;;;;;4.63;2.42;;;28.40;47.60;;;;;;5058061;28;20021;-77
2022/06/15 11:12:41;;;;;;;5.03;2.50;;;28.30;47.80;;;;;;5056775;28;20025;-77
2022/06/15 11:15:13;;;;;;;4.85;2.53;;;28.40;47.90;;;;;;5056163;28;20025;-79
2022/06/15 11:20:32;;;;;;;2.53;2.20;;;28.60;47.20;;;;;;5061409;28;20487;-85
2022/06/15 11:23:31;;;;;;;2.90;2.40;;;28.90;47.00;;;;;;5056494;28;20028;-86
2022/06/15 11:26:52;;;;;;;3.20;2.40;;;29.20;46.40;;;;;;5078905;28;20024;-86
2022/06/15 11:28:58;;;;;;;2.17;2.05;;;29.40;46.30;;;;;;5049921;28;20021;-86
2022/06/15 11:31:27;;;;;;;5.88;2.33;;;29.40;46.50;;;;;;5062663;28;20025;-86
2022/06/15 11:34:02;;;;;;;2.53;2.30;;;29.50;46.40;;;;;;5054261;28;20029;-85
2022/06/15 11:36:50;;;;;;;4.07;2.33;;;29.60;46.10;;;;;;5052815;28;20111;-85
2022/06/15 11:39:19;;;;;;;6.10;2.60;;;29.50;45.20;;;;;;5065833;28;20481;-85
2022/06/15 11:41:53;;;;;;;2.58;2.38;;;29.30;46.00;;;;;;5064787;28;20028;-83
2022/06/15 11:44:23;;;;;;;3.50;2.50;;;29.30;46.40;;;;;;5063038;28;20017;-84
2022/06/15 11:47:20;;;;;;;8.10;2.50;;;29.40;46.50;;;;;;5062005;28;20545;-83
2022/06/15 11:49:58;;;;;;;5.30;2.70;;;29.50;45.70;;;;;;5078605;28;20074;-86
2022/06/15 11:52:43;;;;;;;2.72;2.17;;;29.40;45.90;;;;;;5085861;28;20105;-84
2022/06/15 11:55:18;;;;;;;4.65;2.45;;;29.40;46.60;;;;;;5083829;28;20016;-85
2022/06/15 11:57:58;;;;;;;3.90;2.22;;;29.50;46.50;;;;;;5068101;28;20052;-83
2022/06/15 12:00:51;;;;;;;4.80;2.50;;;29.60;45.70;;;;;;5079104;28;20017;-83
2022/06/15 12:03:38;;;;;;;3.58;2.20;;;29.70;45.50;;;;;;5066883;28;20043;-84
2022/06/15 12:06:26;;;;;;;3.97;2.38;;;29.50;45.50;;;;;;5080036;28;20052;-83
2022/06/15 12:09:24;;;;;;;2.95;2.50;;;29.30;46.80;;;;;;5056417;28;20029;-85
2022/06/15 12:15:21;;;;;;;3.83;2.55;;;29.00;46.70;;;;;;5059100;28;20422;-83
2022/06/15 12:17:50;;;;;;;3.25;2.22;;;29.00;46.90;;;;;;5042457;28;20167;-85
2022/06/15 12:20:37;;;;;;;3.22;2.90;;;29.40;46.80;;;;;;5059786;28;20116;-85
2022/06/15 12:23:14;;;;;;;4.47;2.65;;;29.90;46.00;;;;;;5062278;28;20052;-85
2022/06/15 12:26:02;;;;;;;3.05;2.15;;;30.40;45.40;;;;;;5060148;28;20312;-86
2022/06/15 12:28:37;;;;;;;2.17;2.05;;;30.60;44.70;;;;;;5041013;28;20025;-85
2022/06/15 12:31:19;;;;;;;2.60;2.40;;;30.70;44.00;;;;;;5041974;28;20052;-84
2022/06/15 12:34:25;;;;;;;4.38;2.45;;;30.60;44.40;;;;;;5060187;28;20032;-85
2022/06/15 12:37:01;;;;;;;3.20;2.33;;;30.50;44.70;;;;;;5061259;28;20028;-84
2022/06/15 12:39:46;;;;;;;5.00;2.65;;;30.60;43.80;;;;;;5042696;28;20096;-85
2022/06/15 12:42:14;;;;;;;4.63;2.55;;;30.50;44.00;;;;;;5061629;28;20025;-85
2022/06/15 12:44:51;;;;;;;4.47;2.20;;;30.30;44.60;;;;;;5060144;28;20025;-84
2022/06/15 12:47:20;;;;;;;4.20;2.40;;;30.40;44.20;;;;;;5047823;28;20033;-83
2022/06/15 12:49:49;;;;;;;4.53;2.85;;;30.50;42.50;;;;;;5041905;28;20029;-85
2022/06/15 12:52:32;;;;;;;2.55;2.15;;;30.60;42.10;;;;;;5040317;28;20072;-87
2022/06/15 12:55:19;;;;;;;2.45;2.20;;;30.80;41.60;;;;;;5048643;28;20012;-84
2022/06/15 12:58:18;;;;;;;4.75;2.13;;;30.90;41.90;;;;;;5060491;28;20032;-84
2022/06/15 13:00:56;;;;;;;3.17;2.05;;;30.90;41.80;;;;;;5042499;28;20125;-84
2022/06/15 13:03:22;;;;;;;4.65;2.55;;;30.90;42.20;;;;;;5061067;28;20458;-83
2022/06/15 13:05:47;;;;;;;2.78;2.03;;;31.00;41.90;;;;;;5060828;28;20045;-82
2022/06/15 13:08:16;;;;;;;4.53;2.72;;;31.30;42.10;;;;;;5058011;28;20390;-82
2022/06/15 13:10:54;;;;;;;5.22;2.50;;;31.60;41.80;;;;;;5041705;28;20060;-83
2022/06/15 13:13:35;;;;;;;4.85;2.40;;;31.70;41.60;;;;;;5069813;28;20029;-82
2022/06/15 13:16:08;;;;;;;3.63;2.78;;;31.70;41.80;;;;;;5079944;28;20406;-82
2022/06/15 13:18:52;;;;;;;3.53;2.35;;;31.50;42.40;;;;;;5079018;28;20020;-83
2022/06/15 13:21:20;;;;;;;3.47;2.60;;;31.20;42.40;;;;;;5079394;28;20051;-83
2022/06/15 13:23:58;;;;;;;3.22;2.35;;;31.30;42.50;;;;;;5054469;28;20021;-81
2022/06/15 13:26:45;;;;;;;3.15;2.40;;;31.30;42.40;;;;;;5058966;28;20040;-81
2022/06/15 13:29:11;;;;;;;9.63;4.00;;;30.90;43.20;;;;;;5059238;28;20048;-82
2022/06/15 13:31:47;;;;;;;5.47;2.70;;;30.30;44.40;;;;;;5060159;28;20536;-83